KLNR/LNR METAR and TAF weather

Enter ICAO airport designator
Station Type Date Time Source
KLNR METAR 2020/10/20 16:56 UTC NOAA

KLNR 201656Z AUTO 11012KT 10SM SCT100 05/M02 A3025 RMK AO2 SLP246 T00501022


Station Type Date Time Source
KLNR Decoded METAR 2020/10/20 16:56 UTC NOAA

LONE ROCK TRI-COUNTY REG, WI, United States (KLNR) 43-13N 090-11W 217M
Oct 20, 2020 - 12:56 PM EDT / 2020.10.20 1656 UTC
Wind: from the ESE (110 degrees) at 14 MPH (12 KT):0
Visibility: 10 mile(s):0
Sky conditions: partly cloudy
Temperature: 41.0 F (5.0 C)
Dew Point: 28.0 F (-2.2 C)
Relative Humidity: 59%
Pressure (altimeter): 30.25 in. Hg (1024 hPa)
ob: KLNR 201656Z AUTO 11012KT 10SM SCT100 05/M02 A3025 RMK AO2 SLP246 T00501022
cycle: 17

Station Type Date Time Source
KLNR TAF UTC NOAA

Error!

Example: see airport list